Airfield :
LOGIN :

Register | Disclaimer

   EN    FR    IT 

 










Legend :    VFR   Marginal VFR   IFR   Intensive IFR   Very Intensive IFR
Visi :
Ceiling :
>= 8 km
>= 3000ft
5 to 8 km
1000 to 3000 ft
1500m to 5 km
500 to 1000 ft
800 to 1500m
200 to 500 ft
< 800m
< 200 ft
Symbols :   Thunderstorms  Fog  Heavy snow  Heavy precipitations  Wind > 20 kt
SIGMETs :     Misc.  Thunderstorms  Icing  Turbulence  Mountain Waves  Volcanic Ashes






- Airport Elevation : 11 ft
- IATA code : MJV


LELC - Murcia San Javier

CURRENT METAR :
  • 271930Z 26003KT CAVOK 11/10 Q1021 NOSIG

EXPIRED METARs :
  • 271900Z 21003KT CAVOK 13/11 Q1021 NOSIG
  • 271830Z VRB02KT CAVOK 13/11 Q1022 NOSIG
  • 271800Z 18005KT CAVOK 16/13 Q1022 NOSIG
  • 271730Z 18005KT 140V200 CAVOK 16/13 Q1022 NOSIG
  • 271700Z 19003KT 170V230 CAVOK 16/12 Q1022 NOSIG

TAF TAF LELC
Valid from the 27 at 18:00 until the 28 at 18:00 UTC


271700Z 2718/2818 17010KT CAVOK TX19/2813Z TN08/2806Z
BECMG 2719/2721 29006KT
BECMG 2805/2807 31017KT
TEMPO 2806/2818 31018G28KT



MET'MAP, your aeronautical weather chart ! - Copyright ORBIFLY December 2007 - Disclaimer

ORBIFLY MET'MAP TEAM :

Programming & Development : Alexandra Zaïnal
Original concept : Baudouin d'Aumeries
Technical & hardware support : Manuel Goepfert
Assistance : Marc-Olivier Méhu




SOURCES & CREDITS :

   NOAA